Hovd, Mongolia
Current Conditions -  °F | °C
As of 3:30 PM on Saturday 25 Oct 2014 (Local Time) from ZWWW Reporting Station
Clear Clear  
Wind Chill: 61°   Ceiling: Unl
Heat Index: 61°   Visibility: 6mi
Dew Point: 45°   Wind: 4mph
Humidity: 55%   Direction: 320°NW
Pressure: 30"   Gusts: NA
Location:  48.02°N, 91.57°E
Report Text: ZWWW 250730Z 32002MPS 260V030 CAVOK 16/07 Q1016 NOSIG
Loading
Personal Weather Stations






























Interactive Weather Map
Tropical Storm Tracking
New forecast layout! Learn more

10-Day Weather Forecast

Advertisements
Track Severe Weather on mobile